Sarcobatus Flat, Nevada Weather observations

Data are for observation ending at time listed.
 Day   Time    Ave.   Ave.  Ave.  Vector   Max.   Stn.    Total    Solar   Ave.  
  of    of     Air    Rel.  Wind   Wind    Wind   Baro.  Precip.   Rad.    Soil  
Year   Day     Temp.  Hum.  Speed  Dir.    Gust   Pres.                    Temp. 
2015   (PST)    F      %     mph   deg.    mph     mb.     in.     W/m2     F   
------------------------------------------------------------------------------
 245    7:40   77.5    15   13.2   136     20.1   877.9    0.00     436    999.0
 245    7:50   77.5    15   12.6   134     16.7   877.9    0.00     452    999.0
 245    8:00   78.2    15   11.7   143     15.0   877.8    0.00     522    999.0
 245    8:10   79.0    14   11.5   148     16.4   877.8    0.00     561    999.0
 245    8:20   77.9    15   13.6   127     18.4   877.8    0.00     221    999.0
 245    8:30   77.2    16   14.9   134     19.3   877.8    0.00     194    999.0
 245    8:40   77.1    16   14.4   139     18.8   877.8    0.00     253    999.0
 245    8:50   79.2    16   14.2   146     21.3   877.8    0.00     656    999.0
 245    9:00   81.2    16   18.9   148     25.6   877.7    0.00     793    999.0
 245    9:10   82.0    15   19.2   150     25.8   877.7    0.00     825    999.0
 245    9:20   82.5    14   20.2   142     27.7   877.6    0.00     806    999.0
 245    9:30   82.8    14   20.5   152     28.1   877.6    0.00     806    999.0
 245    9:40   82.9    14   19.3   149     27.0   877.6    0.00     803    999.0
 245    9:50   83.0    13   20.1   152     26.4   877.7    0.00     790    999.0
 245   10:00   83.9    12   17.5   155     24.4   877.8    0.00     835    999.0
 245   10:10   84.1    12   19.2   151     27.1   877.7    0.00     850    999.0
 245   10:20   84.9    11   18.4   160     27.8   877.7    0.00     881    999.0
 245   10:30   85.1    11   18.7   158     25.0   877.5    0.00     838    999.0
 245   10:40   84.8    11   18.6   158     28.4   877.4    0.00     829    999.0
 245   10:50   85.7    10   18.7   160     26.6   877.3    0.00     893    999.0
 245   11:00   86.2    10   18.0   153     29.7   877.2    0.00     915    999.0
 245   11:10   86.1    10   18.4   154     25.4   877.1    0.00     908    999.0
 245   11:20   86.9     9   22.6   156     31.0   877.0    0.00     899    999.0
 245   11:30   86.5     9   18.0   164     28.9   876.9    0.00     968    999.0
 245   11:40   87.7     9   19.9   150     31.0   876.6    0.00     953    999.0
 245   11:50   88.0     9   18.6   157     29.1   876.5    0.00     971    999.0
 245   12:00   87.9     8   18.9   164     29.3   876.5    0.00     944    999.0
 245   12:10   89.1     8   20.0   161     29.7   876.3    0.00    1012    999.0
 245   12:20   88.9     8   22.1   160     30.7   876.3    0.00    1009    999.0
 245   12:30   88.3     8   23.4   152     32.4   876.2    0.00     810    999.0
 245   12:40   88.5     8   22.4   156     30.9   876.1    0.00     964    999.0
 245   12:50   89.0     8   21.8   156     33.1   876.1    0.00     975    999.0
 245   13:00   89.7     7   20.7   174     29.2   876.0    0.00     906    999.0
 245   13:10   88.9     8   21.6   160     28.6   875.8    0.00     811    999.0
 245   13:20   87.7     8   23.3   151     31.0   875.6    0.00     476    999.0
 245   13:30   86.5     8   22.4   160     29.1   875.6    0.00     375    999.0
 245   13:40   87.0     8   19.5   168     26.5   875.6    0.00     565    999.0
 245   13:50   88.1     8   19.3   166     31.5   875.4    0.00     859    999.0
 245   14:00   89.2     7   18.4   155     27.8   875.2    0.00     850    999.0
 245   14:10   89.5     7   18.8   169     26.9   875.1    0.00     806    999.0
 245   14:20   89.1     8   17.1   159     23.8   874.9    0.00     774    999.0
 245   14:30   89.1     8   18.5   167     30.6   874.8    0.00     746    999.0
 245   14:40   89.2     8   19.7   164     30.8   874.7    0.00     711    999.0
 245   14:50   88.8     8   21.0   151     29.6   874.6    0.00     688    999.0
 245   15:00   89.0     8   21.2   161     29.7   874.4    0.00     659    999.0
 245   15:10   88.7     8   21.8   162     29.5   874.3    0.00     627    999.0
 245   15:20   89.0     8   20.9   153     28.9   874.3    0.00     595    999.0
 245   15:30   88.8     8   21.1   161     27.9   874.2    0.00     561    999.0
 245   15:40   88.8     8   20.7   154     29.0   874.2    0.00     526    999.0
 245   15:50   88.8     8   21.2   151     28.7   874.2    0.00     490    999.0
 245   16:00   88.0     8   21.0   151     29.5   874.1    0.00     455    999.0
 245   16:10   88.2     8   20.1   157     29.6   874.1    0.00     419    999.0
 245   16:20   87.9     9   20.8   158     27.1   874.1    0.00     383    999.0
 245   16:30   87.5     9   19.8   150     27.0   874.1    0.00     347    999.0
 245   16:40   87.5     9   18.6   158     23.5   874.1    0.00     311    999.0
 245   16:50   87.1     9   19.9   153     28.7   874.0    0.00     275    999.0
 245   17:00   86.8     9   17.6   150     26.9   874.1    0.00     239    999.0
 245   17:10   86.6     9   18.4   151     25.1   874.0    0.00     203    999.0
 245   17:20   86.4     9   16.1   160     22.8   874.0    0.00     169    999.0
 245   17:30   85.8    10   18.5   161     23.5   873.9    0.00     137    999.0
 245   17:40   85.2    10   18.2   159     23.9   873.9    0.00     105    999.0
 245   17:50   84.5    10   18.0   152     24.1   874.0    0.00      75    999.0
 245   18:00   83.9    11   17.7   151     22.6   874.0    0.00      44    999.0
 245   18:10   82.8    11   14.7   153     20.6   874.0    0.00      10    999.0
 245   18:20   82.0    12   15.2   148     23.5   874.0    0.00       5    999.0
 245   18:30   81.2    12   14.8   148     18.3   874.0    0.00       2    999.0
 245   18:40   80.4    12   12.9   147     16.2   874.1    0.00       0    999.0
 245   18:50   79.8    12   13.6   153     18.4   874.1    0.00       0    999.0
 245   19:00   79.8    13   14.3   156     18.8   874.2    0.00       0    999.0
 245   19:10   79.3    13   14.5   154     17.7   874.3    0.00       0    999.0
 245   19:20   79.0    13   14.2   160     18.0   874.5    0.00       0    999.0
 245   19:30   78.6    13   14.3   163     18.4   874.6    0.00       0    999.0
 245   19:40   78.4    13   13.4   165     20.0   874.6    0.00       0    999.0
 245   19:50   77.9    13   12.3   164     15.6   874.7    0.00       0    999.0
 245   20:00   76.0    13    9.8   153     13.2   874.8    0.00       0    999.0
 245   20:10   74.8    14    9.4   152     11.4   874.9    0.00       0    999.0
 245   20:20   75.1    14   10.3   160     12.9   874.9    0.00       0    999.0
 245   20:30   73.7    14    8.6   160      9.6   875.0    0.00       0    999.0
 245   20:40   72.8    14    8.2   166      9.3   875.1    0.00       0    999.0
 245   20:50   73.5    14    7.3   179      8.8   875.2    0.00       0    999.0
 245   21:00   74.8    14    7.7   170     10.3   875.2    0.00       0    999.0
 245   21:10   74.4    14    6.9   166      9.0   875.2    0.00       0    999.0
 245   21:20   73.7    14   10.1   163     12.6   875.2    0.00       0    999.0
 245   21:30   72.7    14    7.9   156     10.0   875.4    0.00       0    999.0
 245   21:40   72.7    14    8.5   135     13.6   875.3    0.00       0    999.0
 245   21:50   75.2    14    9.1   131     13.3   875.3    0.00       0    999.0
 245   22:00   74.8    14    9.0   118     12.2   875.2    0.00       0    999.0
 245   22:10   74.0    14    8.4   116     12.1   875.2    0.00       0    999.0
 245   22:20   73.7    14    8.8   117     10.7   875.2    0.00       0    999.0
 245   22:30   73.0    14    8.2   112     10.1   875.4    0.00       0    999.0
 245   22:40   71.9    15    6.1   122      8.6   875.4    0.00       0    999.0
 245   22:50   73.0    15    3.5   138      5.9   875.5    0.00       0    999.0
 245   23:00   70.9    16    5.7   102      8.4   875.5    0.00       0    999.0
 245   23:10   71.0    16    4.1   115      6.6   875.4    0.00       0    999.0
 245   23:20   68.9    17    6.5   108      8.2   875.3    0.00       0    999.0
 245   23:30   68.2    18    7.3   122      8.0   875.3    0.00       0    999.0
 245   23:40   69.2    17    6.1   138      7.6   875.2    0.00       0    999.0
 245   23:50   69.6    18    9.1   149     16.4   875.2    0.00       0    999.0
 246    0:00   72.8    17   12.7   148     16.0   875.2    0.00       0    999.0
 246    0:10   72.2    17   11.4   149     16.9   875.2    0.00       0    999.0
 246    0:20   72.4    17    9.6   146     13.2   875.2    0.00       0    999.0
 246    0:30   70.2    18    8.4   143     10.9   875.1    0.00       0    999.0
 246    0:40   68.8    19    6.9   133      8.6   875.1    0.00       0    999.0
 246    0:50   66.9    20    6.9   117      8.3   875.1    0.00       0    999.0
 246    1:00   67.6    20    7.7   122      9.3   875.1    0.00       0    999.0
 246    1:10   66.9    21    7.4   104      8.6   875.1    0.00       0    999.0
 246    1:20   66.2    21    8.1   106     10.4   875.1    0.00       0    999.0
 246    1:30   67.1    21    8.4   114     10.7   875.2    0.00       0    999.0
 246    1:40   67.5    21    5.2   109      8.1   875.1    0.00       0    999.0
 246    1:50   66.9    21    4.5    86      6.3   875.2    0.00       0    999.0
 246    2:00   66.9    21    4.6    93      9.6   875.2    0.00       0    999.0
 246    2:10   67.4    21    4.7   112      8.9   875.2    0.00       0    999.0
 246    2:20   68.0    21    4.9   168      9.4   875.3    0.00       0    999.0
 246    2:30   69.5    20    4.1   128      6.5   875.2    0.00       0    999.0
 246    2:40   68.1    21    5.5   149      8.0   875.1    0.00       0    999.0
 246    2:50   68.0    21   11.7   126     16.0   875.1    0.00       0    999.0
 246    3:00   68.1    21   10.9   115     15.6   875.1    0.00       0    999.0
 246    3:10   67.5    21   10.3   123     13.7   875.0    0.00       0    999.0
 246    3:20   68.3    21   12.4   133     16.7   875.0    0.00       0    999.0
 246    3:30   68.6    21   13.7   135     18.9   874.9    0.00       0    999.0
 246    3:40   68.7    20   12.8   132     16.6   875.0    0.00       0    999.0
 246    3:50   69.1    20   13.3   128     18.9   875.0    0.00       0    999.0
 246    4:00   69.5    20   12.1   120     18.8   875.1    0.00       0    999.0
 246    4:10   67.5    21    7.9   104     10.2   875.2    0.00       0    999.0
 246    4:20   67.2    22    6.4   112     12.6   875.2    0.00       0    999.0
 246    4:30   68.9    20   11.5   124     18.9   875.0    0.00       0    999.0
 246    4:40   68.6    20    9.1   113     20.9   875.0    0.00       0    999.0
 246    4:50   66.9    22    6.7   106     10.2   875.1    0.00       0    999.0
 246    5:00   67.2    21    9.0   108     12.7   875.0    0.00       0    999.0
 246    5:10   67.2    21   10.0   112     14.8   875.1    0.00       0    999.0
 246    5:20   67.0    21   11.0   114     14.2   875.1    0.00       2    999.0
 246    5:30   66.7    21   12.9   112     15.5   875.1    0.00       8    999.0
 246    5:40   66.5    21   12.1   108     16.6   875.2    0.00      17    999.0
 246    5:50   66.3    21    9.5   112     13.7   875.3    0.00      35    999.0
 246    6:00   67.9    20   11.2   112     15.2   875.5    0.00     109    999.0
 246    6:10   68.2    20   11.8   111     16.7   875.7    0.00      73    999.0
 246    6:20   68.5    20   11.0   111     14.4   875.7    0.00     133    999.0
 246    6:30   68.8    19    9.4   109     12.4   875.7    0.00      75    999.0
 246    6:40   68.4    20    6.2   123     10.1   875.7    0.00      73    999.0
 246    6:50   68.9    19   10.0   131     14.5   875.7    0.00     155    999.0
 246    7:00   69.4    18   12.3   131     17.5   875.6    0.00      70    999.0
 246    7:10   69.0    18   13.3   129     20.2   875.6    0.00      89    999.0
 246    7:20   68.9    18   13.5   128     19.5   875.6    0.00     149    999.0
 246    7:30   70.3    18   14.7   130     19.1   875.6    0.00     368    999.0

Return to Sarcobatus Flat, Nevada graphs page.


Western Regional Climate Center,wrcc@dri.edu